sensor_id;sensor_type;location;lat;lon;timestamp;P1;durP1;ratioP1;P2;durP2;ratioP2
60502;SDS011;51448;51.660;5.824;2023-11-22T00:00:15;21.77;;;14.98;;
60502;SDS011;51448;51.660;5.824;2023-11-22T00:02:43;22.92;;;14.60;;
60502;SDS011;51448;51.660;5.824;2023-11-22T00:05:11;20.52;;;13.77;;
60502;SDS011;51448;51.660;5.824;2023-11-22T00:07:39;28.70;;;16.10;;
60502;SDS011;51448;51.660;5.824;2023-11-22T00:10:07;21.60;;;13.38;;
60502;SDS011;51448;51.660;5.824;2023-11-22T00:12:36;21.23;;;14.93;;
60502;SDS011;51448;51.660;5.824;2023-11-22T00:15:05;23.60;;;15.60;;
60502;SDS011;51448;51.660;5.824;2023-11-22T00:17:34;25.83;;;14.48;;
60502;SDS011;51448;51.660;5.824;2023-11-22T00:20:02;23.95;;;14.88;;
60502;SDS011;51448;51.660;5.824;2023-11-22T00:22:33;21.08;;;14.60;;
60502;SDS011;51448;51.660;5.824;2023-11-22T00:25:01;21.70;;;14.80;;
60502;SDS011;51448;51.660;5.824;2023-11-22T00:27:29;26.17;;;14.52;;
60502;SDS011;51448;51.660;5.824;2023-11-22T00:30:00;21.77;;;14.13;;
60502;SDS011;51448;51.660;5.824;2023-11-22T00:32:28;22.25;;;14.25;;
60502;SDS011;51448;51.660;5.824;2023-11-22T00:34:56;19.98;;;14.45;;
60502;SDS011;51448;51.660;5.824;2023-11-22T00:37:24;20.48;;;14.05;;
60502;SDS011;51448;51.660;5.824;2023-11-22T00:39:52;20.02;;;13.63;;
60502;SDS011;51448;51.660;5.824;2023-11-22T00:42:20;20.52;;;13.80;;
60502;SDS011;51448;51.660;5.824;2023-11-22T00:44:47;24.85;;;14.38;;
60502;SDS011;51448;51.660;5.824;2023-11-22T00:47:15;20.38;;;13.48;;
60502;SDS011;51448;51.660;5.824;2023-11-22T00:49:44;20.83;;;13.90;;
60502;SDS011;51448;51.660;5.824;2023-11-22T00:52:11;20.88;;;14.52;;
60502;SDS011;51448;51.660;5.824;2023-11-22T00:54:40;20.13;;;14.40;;
60502;SDS011;51448;51.660;5.824;2023-11-22T00:57:08;22.50;;;13.85;;
60502;SDS011;51448;51.660;5.824;2023-11-22T00:59:35;22.33;;;13.82;;
60502;SDS011;51448;51.660;5.824;2023-11-22T01:02:03;23.13;;;15.77;;
60502;SDS011;51448;51.660;5.824;2023-11-22T01:04:32;22.83;;;14.93;;
60502;SDS011;51448;51.660;5.824;2023-11-22T01:07:03;24.42;;;15.35;;
60502;SDS011;51448;51.660;5.824;2023-11-22T01:09:34;24.13;;;14.13;;
60502;SDS011;51448;51.660;5.824;2023-11-22T01:12:02;24.30;;;15.85;;
60502;SDS011;51448;51.660;5.824;2023-11-22T01:14:29;22.15;;;14.25;;
60502;SDS011;51448;51.660;5.824;2023-11-22T01:16:57;26.40;;;15.85;;
60502;SDS011;51448;51.660;5.824;2023-11-22T01:19:25;21.58;;;14.45;;
60502;SDS011;51448;51.660;5.824;2023-11-22T01:21:54;24.63;;;14.27;;
60502;SDS011;51448;51.660;5.824;2023-11-22T01:24:22;21.75;;;14.77;;
60502;SDS011;51448;51.660;5.824;2023-11-22T01:26:49;25.55;;;15.15;;
60502;SDS011;51448;51.660;5.824;2023-11-22T01:29:17;23.48;;;14.55;;
60502;SDS011;51448;51.660;5.824;2023-11-22T01:31:45;27.08;;;15.45;;
60502;SDS011;51448;51.660;5.824;2023-11-22T01:34:12;28.23;;;15.93;;
60502;SDS011;51448;51.660;5.824;2023-11-22T01:36:43;23.75;;;14.20;;
60502;SDS011;51448;51.660;5.824;2023-11-22T01:39:12;27.17;;;16.20;;
60502;SDS011;51448;51.660;5.824;2023-11-22T01:41:43;22.73;;;14.05;;
60502;SDS011;51448;51.660;5.824;2023-11-22T01:44:12;23.98;;;14.68;;
60502;SDS011;51448;51.660;5.824;2023-11-22T01:46:40;23.42;;;15.05;;
60502;SDS011;51448;51.660;5.824;2023-11-22T01:49:10;21.80;;;14.25;;
60502;SDS011;51448;51.660;5.824;2023-11-22T01:51:38;20.90;;;13.77;;
60502;SDS011;51448;51.660;5.824;2023-11-22T01:54:08;22.23;;;13.90;;
60502;SDS011;51448;51.660;5.824;2023-11-22T01:56:36;21.23;;;13.90;;
60502;SDS011;51448;51.660;5.824;2023-11-22T01:59:06;21.70;;;14.40;;
60502;SDS011;51448;51.660;5.824;2023-11-22T02:01:34;23.40;;;14.23;;
60502;SDS011;51448;51.660;5.824;2023-11-22T02:04:02;23.80;;;14.35;;
60502;SDS011;51448;51.660;5.824;2023-11-22T02:06:30;22.48;;;14.93;;
60502;SDS011;51448;51.660;5.824;2023-11-22T02:08:59;24.30;;;14.80;;
60502;SDS011;51448;51.660;5.824;2023-11-22T02:11:28;19.75;;;13.63;;
60502;SDS011;51448;51.660;5.824;2023-11-22T02:13:56;22.95;;;14.90;;
60502;SDS011;51448;51.660;5.824;2023-11-22T02:16:24;20.88;;;14.57;;
60502;SDS011;51448;51.660;5.824;2023-11-22T02:18:51;22.08;;;14.50;;
60502;SDS011;51448;51.660;5.824;2023-11-22T02:21:19;23.00;;;15.07;;
60502;SDS011;51448;51.660;5.824;2023-11-22T02:23:48;23.73;;;14.73;;
60502;SDS011;51448;51.660;5.824;2023-11-22T02:26:16;20.33;;;13.23;;
60502;SDS011;51448;51.660;5.824;2023-11-22T02:28:47;22.38;;;14.52;;
60502;SDS011;51448;51.660;5.824;2023-11-22T02:31:16;21.80;;;14.93;;
60502;SDS011;51448;51.660;5.824;2023-11-22T02:33:44;21.40;;;13.88;;
60502;SDS011;51448;51.660;5.824;2023-11-22T02:36:12;22.40;;;14.77;;
60502;SDS011;51448;51.660;5.824;2023-11-22T02:38:40;22.23;;;14.13;;
60502;SDS011;51448;51.660;5.824;2023-11-22T02:41:08;23.58;;;13.85;;
60502;SDS011;51448;51.660;5.824;2023-11-22T02:43:36;21.48;;;13.13;;
60502;SDS011;51448;51.660;5.824;2023-11-22T02:46:04;23.33;;;13.00;;
60502;SDS011;51448;51.660;5.824;2023-11-22T02:48:31;22.40;;;15.18;;
60502;SDS011;51448;51.660;5.824;2023-11-22T02:51:00;22.15;;;14.85;;
60502;SDS011;51448;51.660;5.824;2023-11-22T02:53:28;19.95;;;12.80;;
60502;SDS011;51448;51.660;5.824;2023-11-22T02:56:00;21.38;;;13.82;;
60502;SDS011;51448;51.660;5.824;2023-11-22T02:58:29;23.77;;;13.93;;
60502;SDS011;51448;51.660;5.824;2023-11-22T03:00:58;21.65;;;12.73;;
60502;SDS011;51448;51.660;5.824;2023-11-22T03:03:25;20.98;;;12.82;;
60502;SDS011;51448;51.660;5.824;2023-11-22T03:05:54;21.70;;;12.55;;
60502;SDS011;51448;51.660;5.824;2023-11-22T03:08:22;21.30;;;13.88;;
60502;SDS011;51448;51.660;5.824;2023-11-22T03:10:49;23.65;;;12.35;;
60502;SDS011;51448;51.660;5.824;2023-11-22T03:13:20;22.83;;;13.18;;
60502;SDS011;51448;51.660;5.824;2023-11-22T03:15:48;24.23;;;14.63;;
60502;SDS011;51448;51.660;5.824;2023-11-22T03:18:16;22.45;;;13.88;;
60502;SDS011;51448;51.660;5.824;2023-11-22T03:20:44;20.10;;;13.15;;
60502;SDS011;51448;51.660;5.824;2023-11-22T03:23:12;21.85;;;13.90;;
60502;SDS011;51448;51.660;5.824;2023-11-22T03:25:40;22.88;;;14.57;;
60502;SDS011;51448;51.660;5.824;2023-11-22T03:28:07;20.77;;;13.60;;
60502;SDS011;51448;51.660;5.824;2023-11-22T03:30:35;20.35;;;12.70;;
60502;SDS011;51448;51.660;5.824;2023-11-22T03:33:03;22.58;;;14.32;;
60502;SDS011;51448;51.660;5.824;2023-11-22T03:35:31;19.90;;;13.43;;
60502;SDS011;51448;51.660;5.824;2023-11-22T03:37:59;22.15;;;13.57;;
60502;SDS011;51448;51.660;5.824;2023-11-22T03:40:27;21.88;;;12.68;;
60502;SDS011;51448;51.660;5.824;2023-11-22T03:42:54;21.38;;;13.95;;
60502;SDS011;51448;51.660;5.824;2023-11-22T03:45:22;22.35;;;14.18;;
60502;SDS011;51448;51.660;5.824;2023-11-22T03:47:50;19.83;;;13.45;;
60502;SDS011;51448;51.660;5.824;2023-11-22T03:50:17;21.02;;;14.23;;
60502;SDS011;51448;51.660;5.824;2023-11-22T03:52:46;22.05;;;13.88;;
60502;SDS011;51448;51.660;5.824;2023-11-22T03:55:14;21.73;;;13.52;;
60502;SDS011;51448;51.660;5.824;2023-11-22T03:57:41;23.20;;;13.60;;
60502;SDS011;51448;51.660;5.824;2023-11-22T04:00:09;21.10;;;13.25;;
60502;SDS011;51448;51.660;5.824;2023-11-22T04:02:39;24.13;;;13.88;;
60502;SDS011;51448;51.660;5.824;2023-11-22T04:05:10;21.42;;;12.90;;
60502;SDS011;51448;51.660;5.824;2023-11-22T04:07:39;19.63;;;12.35;;
60502;SDS011;51448;51.660;5.824;2023-11-22T04:10:06;22.42;;;13.85;;
60502;SDS011;51448;51.660;5.824;2023-11-22T04:12:34;23.23;;;14.38;;
60502;SDS011;51448;51.660;5.824;2023-11-22T04:15:04;22.23;;;13.63;;
60502;SDS011;51448;51.660;5.824;2023-11-22T04:17:36;23.77;;;14.77;;
60502;SDS011;51448;51.660;5.824;2023-11-22T04:20:05;23.08;;;13.82;;
60502;SDS011;51448;51.660;5.824;2023-11-22T04:22:38;22.42;;;12.80;;
60502;SDS011;51448;51.660;5.824;2023-11-22T04:25:07;26.60;;;14.80;;
60502;SDS011;51448;51.660;5.824;2023-11-22T04:27:41;23.88;;;14.20;;
60502;SDS011;51448;51.660;5.824;2023-11-22T04:30:09;24.55;;;14.18;;
60502;SDS011;51448;51.660;5.824;2023-11-22T04:32:41;24.52;;;15.57;;
60502;SDS011;51448;51.660;5.824;2023-11-22T04:35:09;26.23;;;14.05;;
60502;SDS011;51448;51.660;5.824;2023-11-22T04:37:37;22.50;;;14.30;;
60502;SDS011;51448;51.660;5.824;2023-11-22T04:40:05;21.42;;;12.38;;
60502;SDS011;51448;51.660;5.824;2023-11-22T04:42:38;20.90;;;12.52;;
60502;SDS011;51448;51.660;5.824;2023-11-22T04:45:06;19.45;;;12.35;;
60502;SDS011;51448;51.660;5.824;2023-11-22T04:47:34;23.02;;;13.15;;
60502;SDS011;51448;51.660;5.824;2023-11-22T04:50:02;24.85;;;14.15;;
60502;SDS011;51448;51.660;5.824;2023-11-22T04:52:31;23.80;;;13.80;;
60502;SDS011;51448;51.660;5.824;2023-11-22T04:54:59;25.13;;;14.63;;
60502;SDS011;51448;51.660;5.824;2023-11-22T04:57:27;27.08;;;13.48;;
60502;SDS011;51448;51.660;5.824;2023-11-22T04:59:54;24.52;;;13.52;;
60502;SDS011;51448;51.660;5.824;2023-11-22T05:02:22;23.83;;;14.15;;
60502;SDS011;51448;51.660;5.824;2023-11-22T05:04:50;23.17;;;13.05;;
60502;SDS011;51448;51.660;5.824;2023-11-22T05:07:19;19.83;;;13.07;;
60502;SDS011;51448;51.660;5.824;2023-11-22T05:09:47;23.48;;;13.52;;
60502;SDS011;51448;51.660;5.824;2023-11-22T05:12:14;23.27;;;13.90;;
60502;SDS011;51448;51.660;5.824;2023-11-22T05:14:42;23.52;;;14.13;;
60502;SDS011;51448;51.660;5.824;2023-11-22T05:17:13;21.27;;;12.85;;
60502;SDS011;51448;51.660;5.824;2023-11-22T05:19:40;24.25;;;14.02;;
60502;SDS011;51448;51.660;5.824;2023-11-22T05:22:08;20.48;;;12.55;;
60502;SDS011;51448;51.660;5.824;2023-11-22T05:24:36;27.63;;;14.82;;
60502;SDS011;51448;51.660;5.824;2023-11-22T05:27:05;21.73;;;12.93;;
60502;SDS011;51448;51.660;5.824;2023-11-22T05:29:34;22.88;;;12.95;;
60502;SDS011;51448;51.660;5.824;2023-11-22T05:32:13;20.95;;;12.82;;
60502;SDS011;51448;51.660;5.824;2023-11-22T05:34:41;20.73;;;12.60;;
60502;SDS011;51448;51.660;5.824;2023-11-22T05:37:08;20.80;;;12.77;;
60502;SDS011;51448;51.660;5.824;2023-11-22T05:39:36;24.40;;;14.25;;
60502;SDS011;51448;51.660;5.824;2023-11-22T05:42:04;24.10;;;15.00;;
60502;SDS011;51448;51.660;5.824;2023-11-22T05:44:31;27.83;;;16.23;;
60502;SDS011;51448;51.660;5.824;2023-11-22T05:46:59;30.42;;;16.17;;
60502;SDS011;51448;51.660;5.824;2023-11-22T05:49:27;31.63;;;16.73;;
60502;SDS011;51448;51.660;5.824;2023-11-22T05:51:55;31.13;;;17.70;;
60502;SDS011;51448;51.660;5.824;2023-11-22T05:54:23;34.38;;;17.02;;
60502;SDS011;51448;51.660;5.824;2023-11-22T05:56:50;47.58;;;18.08;;
60502;SDS011;51448;51.660;5.824;2023-11-22T05:59:18;65.53;;;18.55;;
60502;SDS011;51448;51.660;5.824;2023-11-22T06:01:45;61.47;;;18.60;;
60502;SDS011;51448;51.660;5.824;2023-11-22T06:04:13;40.97;;;19.45;;
60502;SDS011;51448;51.660;5.824;2023-11-22T06:06:41;57.95;;;19.35;;
60502;SDS011;51448;51.660;5.824;2023-11-22T06:09:09;38.35;;;18.70;;
60502;SDS011;51448;51.660;5.824;2023-11-22T06:11:41;117.03;;;20.55;;
60502;SDS011;51448;51.660;5.824;2023-11-22T06:14:09;74.05;;;18.40;;
60502;SDS011;51448;51.660;5.824;2023-11-22T06:16:36;49.38;;;17.73;;
60502;SDS011;51448;51.660;5.824;2023-11-22T06:19:04;56.60;;;19.13;;
60502;SDS011;51448;51.660;5.824;2023-11-22T06:21:32;131.90;;;18.77;;
60502;SDS011;51448;51.660;5.824;2023-11-22T06:23:59;139.30;;;19.05;;
60502;SDS011;51448;51.660;5.824;2023-11-22T06:26:28;113.00;;;19.95;;
60502;SDS011;51448;51.660;5.824;2023-11-22T06:28:56;56.58;;;19.23;;
60502;SDS011;51448;51.660;5.824;2023-11-22T06:31:24;89.25;;;19.50;;
60502;SDS011;51448;51.660;5.824;2023-11-22T06:33:51;72.75;;;18.65;;
60502;SDS011;51448;51.660;5.824;2023-11-22T06:36:19;63.92;;;18.50;;
60502;SDS011;51448;51.660;5.824;2023-11-22T06:38:47;115.85;;;19.00;;
60502;SDS011;51448;51.660;5.824;2023-11-22T06:41:37;103.82;;;19.05;;
60502;SDS011;51448;51.660;5.824;2023-11-22T06:44:04;44.03;;;17.60;;
60502;SDS011;51448;51.660;5.824;2023-11-22T06:46:32;117.30;;;19.70;;
60502;SDS011;51448;51.660;5.824;2023-11-22T06:49:00;62.38;;;18.13;;
60502;SDS011;51448;51.660;5.824;2023-11-22T06:51:27;58.35;;;16.88;;
60502;SDS011;51448;51.660;5.824;2023-11-22T06:53:55;33.90;;;16.15;;
60502;SDS011;51448;51.660;5.824;2023-11-22T06:56:24;53.53;;;16.13;;
60502;SDS011;51448;51.660;5.824;2023-11-22T06:58:52;42.47;;;16.40;;
60502;SDS011;51448;51.660;5.824;2023-11-22T07:01:23;35.22;;;16.42;;
60502;SDS011;51448;51.660;5.824;2023-11-22T07:03:54;61.28;;;17.48;;
60502;SDS011;51448;51.660;5.824;2023-11-22T07:06:22;59.95;;;16.95;;
60502;SDS011;51448;51.660;5.824;2023-11-22T07:08:49;43.75;;;17.10;;
60502;SDS011;51448;51.660;5.824;2023-11-22T07:11:24;52.00;;;16.63;;
60502;SDS011;51448;51.660;5.824;2023-11-22T07:13:53;59.10;;;17.88;;
60502;SDS011;51448;51.660;5.824;2023-11-22T07:16:21;47.15;;;15.45;;
60502;SDS011;51448;51.660;5.824;2023-11-22T07:18:48;31.45;;;16.42;;
60502;SDS011;51448;51.660;5.824;2023-11-22T07:21:16;31.75;;;14.90;;
60502;SDS011;51448;51.660;5.824;2023-11-22T07:23:44;68.57;;;16.48;;
60502;SDS011;51448;51.660;5.824;2023-11-22T07:26:12;90.13;;;17.63;;
60502;SDS011;51448;51.660;5.824;2023-11-22T07:28:43;81.00;;;17.48;;
60502;SDS011;51448;51.660;5.824;2023-11-22T07:31:11;56.63;;;16.83;;
60502;SDS011;51448;51.660;5.824;2023-11-22T07:33:39;55.92;;;17.20;;
60502;SDS011;51448;51.660;5.824;2023-11-22T07:36:07;44.95;;;15.35;;
60502;SDS011;51448;51.660;5.824;2023-11-22T07:38:35;47.17;;;16.33;;
60502;SDS011;51448;51.660;5.824;2023-11-22T07:41:05;64.10;;;16.95;;
60502;SDS011;51448;51.660;5.824;2023-11-22T07:43:34;47.38;;;16.40;;
60502;SDS011;51448;51.660;5.824;2023-11-22T07:46:06;52.30;;;16.17;;
60502;SDS011;51448;51.660;5.824;2023-11-22T07:48:43;81.38;;;17.35;;
60502;SDS011;51448;51.660;5.824;2023-11-22T07:51:13;61.97;;;17.30;;
60502;SDS011;51448;51.660;5.824;2023-11-22T07:53:44;74.65;;;18.35;;
60502;SDS011;51448;51.660;5.824;2023-11-22T07:56:11;81.45;;;17.50;;
60502;SDS011;51448;51.660;5.824;2023-11-22T07:58:41;53.72;;;19.95;;
60502;SDS011;51448;51.660;5.824;2023-11-22T08:01:09;89.78;;;18.70;;
60502;SDS011;51448;51.660;5.824;2023-11-22T08:03:41;50.25;;;17.77;;
60502;SDS011;51448;51.660;5.824;2023-11-22T08:06:15;41.85;;;18.52;;
60502;SDS011;51448;51.660;5.824;2023-11-22T08:08:44;62.22;;;18.98;;
60502;SDS011;51448;51.660;5.824;2023-11-22T08:11:13;76.00;;;19.33;;
60502;SDS011;51448;51.660;5.824;2023-11-22T08:13:48;87.90;;;19.15;;
60502;SDS011;51448;51.660;5.824;2023-11-22T08:16:15;49.92;;;18.50;;
60502;SDS011;51448;51.660;5.824;2023-11-22T08:18:43;81.72;;;19.65;;
60502;SDS011;51448;51.660;5.824;2023-11-22T08:21:11;74.38;;;19.08;;
60502;SDS011;51448;51.660;5.824;2023-11-22T08:23:39;45.97;;;18.45;;
60502;SDS011;51448;51.660;5.824;2023-11-22T08:26:07;49.92;;;18.15;;
60502;SDS011;51448;51.660;5.824;2023-11-22T08:28:36;38.78;;;18.27;;
60502;SDS011;51448;51.660;5.824;2023-11-22T08:31:03;39.35;;;18.50;;
60502;SDS011;51448;51.660;5.824;2023-11-22T08:33:31;42.03;;;18.63;;
60502;SDS011;51448;51.660;5.824;2023-11-22T08:36:00;35.33;;;18.02;;
60502;SDS011;51448;51.660;5.824;2023-11-22T08:38:28;35.10;;;17.38;;
60502;SDS011;51448;51.660;5.824;2023-11-22T08:40:56;38.35;;;18.45;;
60502;SDS011;51448;51.660;5.824;2023-11-22T08:43:23;42.95;;;20.02;;
60502;SDS011;51448;51.660;5.824;2023-11-22T08:45:53;41.92;;;19.48;;
60502;SDS011;51448;51.660;5.824;2023-11-22T08:48:35;41.08;;;19.98;;
60502;SDS011;51448;51.660;5.824;2023-11-22T08:51:06;42.45;;;19.92;;
60502;SDS011;51448;51.660;5.824;2023-11-22T08:53:36;49.45;;;19.02;;
60502;SDS011;51448;51.660;5.824;2023-11-22T08:56:04;49.78;;;20.05;;
60502;SDS011;51448;51.660;5.824;2023-11-22T08:58:33;46.15;;;20.63;;
60502;SDS011;51448;51.660;5.824;2023-11-22T09:01:02;46.78;;;21.35;;
60502;SDS011;51448;51.660;5.824;2023-11-22T09:03:31;51.03;;;22.38;;
60502;SDS011;51448;51.660;5.824;2023-11-22T09:06:00;43.42;;;20.48;;
60502;SDS011;51448;51.660;5.824;2023-11-22T09:08:28;45.60;;;20.02;;
60502;SDS011;51448;51.660;5.824;2023-11-22T09:10:57;41.28;;;20.42;;
60502;SDS011;51448;51.660;5.824;2023-11-22T09:13:25;45.38;;;21.75;;
60502;SDS011;51448;51.660;5.824;2023-11-22T09:15:54;39.53;;;20.25;;
60502;SDS011;51448;51.660;5.824;2023-11-22T09:18:22;39.47;;;19.10;;
60502;SDS011;51448;51.660;5.824;2023-11-22T09:20:49;48.42;;;21.98;;
60502;SDS011;51448;51.660;5.824;2023-11-22T09:23:17;45.65;;;22.73;;
60502;SDS011;51448;51.660;5.824;2023-11-22T09:25:45;40.78;;;22.77;;
60502;SDS011;51448;51.660;5.824;2023-11-22T09:28:13;42.90;;;22.63;;
60502;SDS011;51448;51.660;5.824;2023-11-22T09:30:43;53.42;;;25.23;;
60502;SDS011;51448;51.660;5.824;2023-11-22T09:33:13;41.47;;;22.67;;
60502;SDS011;51448;51.660;5.824;2023-11-22T09:35:43;43.47;;;22.55;;
60502;SDS011;51448;51.660;5.824;2023-11-22T09:38:15;43.00;;;22.23;;
60502;SDS011;51448;51.660;5.824;2023-11-22T09:40:45;38.53;;;22.02;;
60502;SDS011;51448;51.660;5.824;2023-11-22T09:43:15;39.60;;;22.40;;
60502;SDS011;51448;51.660;5.824;2023-11-22T09:45:47;38.15;;;21.00;;
60502;SDS011;51448;51.660;5.824;2023-11-22T09:48:24;38.20;;;22.23;;
60502;SDS011;51448;51.660;5.824;2023-11-22T09:51:09;39.65;;;22.35;;
60502;SDS011;51448;51.660;5.824;2023-11-22T09:54:00;40.25;;;21.80;;
60502;SDS011;51448;51.660;5.824;2023-11-22T09:56:34;42.40;;;22.35;;
60502;SDS011;51448;51.660;5.824;2023-11-22T09:59:06;47.55;;;24.20;;
60502;SDS011;51448;51.660;5.824;2023-11-22T10:01:34;46.40;;;24.83;;
60502;SDS011;51448;51.660;5.824;2023-11-22T10:04:04;48.35;;;25.05;;
60502;SDS011;51448;51.660;5.824;2023-11-22T10:06:32;41.85;;;23.17;;
60502;SDS011;51448;51.660;5.824;2023-11-22T10:09:03;41.80;;;22.08;;
60502;SDS011;51448;51.660;5.824;2023-11-22T10:11:35;42.20;;;23.25;;
60502;SDS011;51448;51.660;5.824;2023-11-22T10:16:35;43.33;;;22.80;;
60502;SDS011;51448;51.660;5.824;2023-11-22T10:19:04;44.38;;;23.15;;
60502;SDS011;51448;51.660;5.824;2023-11-22T10:21:34;43.10;;;23.35;;
60502;SDS011;51448;51.660;5.824;2023-11-22T10:24:02;46.00;;;25.45;;
60502;SDS011;51448;51.660;5.824;2023-11-22T10:26:31;46.17;;;25.08;;
60502;SDS011;51448;51.660;5.824;2023-11-22T10:29:00;46.85;;;26.13;;
60502;SDS011;51448;51.660;5.824;2023-11-22T10:31:28;50.03;;;27.80;;
60502;SDS011;51448;51.660;5.824;2023-11-22T10:33:56;48.13;;;25.50;;
60502;SDS011;51448;51.660;5.824;2023-11-22T10:36:25;50.47;;;27.30;;
60502;SDS011;51448;51.660;5.824;2023-11-22T10:38:53;52.58;;;28.88;;
60502;SDS011;51448;51.660;5.824;2023-11-22T10:41:21;48.47;;;26.90;;
60502;SDS011;51448;51.660;5.824;2023-11-22T10:43:52;60.05;;;31.33;;
60502;SDS011;51448;51.660;5.824;2023-11-22T10:46:27;55.40;;;30.95;;
60502;SDS011;51448;51.660;5.824;2023-11-22T10:48:57;54.72;;;30.13;;
60502;SDS011;51448;51.660;5.824;2023-11-22T10:51:26;54.00;;;30.77;;
60502;SDS011;51448;51.660;5.824;2023-11-22T10:53:59;53.38;;;30.55;;
60502;SDS011;51448;51.660;5.824;2023-11-22T10:56:38;53.05;;;30.88;;
60502;SDS011;51448;51.660;5.824;2023-11-22T10:59:18;55.78;;;31.23;;
60502;SDS011;51448;51.660;5.824;2023-11-22T11:01:50;55.08;;;30.00;;
60502;SDS011;51448;51.660;5.824;2023-11-22T11:04:33;52.13;;;28.40;;
60502;SDS011;51448;51.660;5.824;2023-11-22T11:07:18;50.88;;;27.67;;
60502;SDS011;51448;51.660;5.824;2023-11-22T11:09:53;52.78;;;30.63;;
60502;SDS011;51448;51.660;5.824;2023-11-22T11:12:27;47.33;;;27.48;;
60502;SDS011;51448;51.660;5.824;2023-11-22T11:14:55;51.70;;;27.25;;
60502;SDS011;51448;51.660;5.824;2023-11-22T11:17:24;47.47;;;27.17;;
60502;SDS011;51448;51.660;5.824;2023-11-22T11:19:52;47.72;;;27.58;;
60502;SDS011;51448;51.660;5.824;2023-11-22T11:22:21;47.22;;;27.45;;
60502;SDS011;51448;51.660;5.824;2023-11-22T11:24:49;50.63;;;27.75;;
60502;SDS011;51448;51.660;5.824;2023-11-22T11:27:34;47.95;;;27.00;;
60502;SDS011;51448;51.660;5.824;2023-11-22T11:35:56;48.80;;;27.08;;
60502;SDS011;51448;51.660;5.824;2023-11-22T11:38:31;52.05;;;27.52;;
60502;SDS011;51448;51.660;5.824;2023-11-22T11:41:11;55.00;;;29.58;;
60502;SDS011;51448;51.660;5.824;2023-11-22T11:43:44;53.25;;;29.52;;
60502;SDS011;51448;51.660;5.824;2023-11-22T11:46:15;60.05;;;30.45;;
60502;SDS011;51448;51.660;5.824;2023-11-22T11:48:45;54.75;;;29.73;;
60502;SDS011;51448;51.660;5.824;2023-11-22T11:51:18;56.95;;;30.38;;
60502;SDS011;51448;51.660;5.824;2023-11-22T11:53:55;48.88;;;27.50;;
60502;SDS011;51448;51.660;5.824;2023-11-22T11:56:23;49.72;;;28.00;;
60502;SDS011;51448;51.660;5.824;2023-11-22T11:58:55;52.55;;;29.48;;
60502;SDS011;51448;51.660;5.824;2023-11-22T12:01:28;56.60;;;30.63;;
60502;SDS011;51448;51.660;5.824;2023-11-22T12:04:01;50.33;;;27.95;;
60502;SDS011;51448;51.660;5.824;2023-11-22T12:06:30;52.15;;;28.55;;
60502;SDS011;51448;51.660;5.824;2023-11-22T12:09:01;49.75;;;28.73;;
60502;SDS011;51448;51.660;5.824;2023-11-22T12:11:28;46.42;;;27.88;;
60502;SDS011;51448;51.660;5.824;2023-11-22T12:13:57;47.83;;;27.38;;
60502;SDS011;51448;51.660;5.824;2023-11-22T12:16:26;46.03;;;25.20;;
60502;SDS011;51448;51.660;5.824;2023-11-22T12:18:55;47.78;;;27.60;;
60502;SDS011;51448;51.660;5.824;2023-11-22T12:21:24;48.67;;;27.40;;
60502;SDS011;51448;51.660;5.824;2023-11-22T12:23:51;44.72;;;26.20;;
60502;SDS011;51448;51.660;5.824;2023-11-22T12:26:20;51.03;;;28.02;;
60502;SDS011;51448;51.660;5.824;2023-11-22T12:28:49;46.20;;;28.45;;
60502;SDS011;51448;51.660;5.824;2023-11-22T12:31:33;43.80;;;26.10;;
60502;SDS011;51448;51.660;5.824;2023-11-22T12:34:04;47.33;;;28.25;;
60502;SDS011;51448;51.660;5.824;2023-11-22T12:36:35;49.55;;;26.75;;
60502;SDS011;51448;51.660;5.824;2023-11-22T12:39:10;41.38;;;25.25;;
60502;SDS011;51448;51.660;5.824;2023-11-22T12:41:45;42.47;;;23.23;;
60502;SDS011;51448;51.660;5.824;2023-11-22T12:44:25;42.05;;;25.90;;
60502;SDS011;51448;51.660;5.824;2023-11-22T12:46:53;44.60;;;26.25;;
60502;SDS011;51448;51.660;5.824;2023-11-22T12:49:28;40.83;;;24.27;;
60502;SDS011;51448;51.660;5.824;2023-11-22T12:51:56;44.55;;;25.52;;
60502;SDS011;51448;51.660;5.824;2023-11-22T12:54:24;43.30;;;25.50;;
60502;SDS011;51448;51.660;5.824;2023-11-22T12:56:53;44.95;;;25.25;;
60502;SDS011;51448;51.660;5.824;2023-11-22T12:59:26;42.20;;;24.58;;
60502;SDS011;51448;51.660;5.824;2023-11-22T13:01:58;40.90;;;26.08;;
60502;SDS011;51448;51.660;5.824;2023-11-22T13:04:28;41.10;;;24.52;;
60502;SDS011;51448;51.660;5.824;2023-11-22T13:06:59;43.20;;;25.95;;
60502;SDS011;51448;51.660;5.824;2023-11-22T13:09:27;40.50;;;23.25;;
60502;SDS011;51448;51.660;5.824;2023-11-22T13:11:56;42.30;;;25.70;;
60502;SDS011;51448;51.660;5.824;2023-11-22T13:14:25;45.63;;;25.33;;
60502;SDS011;51448;51.660;5.824;2023-11-22T13:16:57;41.40;;;25.60;;
60502;SDS011;51448;51.660;5.824;2023-11-22T13:19:25;45.63;;;24.08;;
60502;SDS011;51448;51.660;5.824;2023-11-22T13:21:52;46.58;;;24.23;;
60502;SDS011;51448;51.660;5.824;2023-11-22T13:24:20;43.58;;;25.63;;
60502;SDS011;51448;51.660;5.824;2023-11-22T13:26:48;45.42;;;25.50;;
60502;SDS011;51448;51.660;5.824;2023-11-22T13:29:15;45.47;;;25.45;;
60502;SDS011;51448;51.660;5.824;2023-11-22T13:31:43;47.33;;;28.08;;
60502;SDS011;51448;51.660;5.824;2023-11-22T13:34:11;47.83;;;27.60;;
60502;SDS011;51448;51.660;5.824;2023-11-22T13:36:38;47.60;;;26.20;;
60502;SDS011;51448;51.660;5.824;2023-11-22T13:39:06;43.15;;;24.95;;
60502;SDS011;51448;51.660;5.824;2023-11-22T13:41:34;45.15;;;25.60;;
60502;SDS011;51448;51.660;5.824;2023-11-22T13:44:01;47.08;;;25.42;;
60502;SDS011;51448;51.660;5.824;2023-11-22T13:46:30;43.88;;;24.52;;
60502;SDS011;51448;51.660;5.824;2023-11-22T13:48:57;46.67;;;26.38;;
60502;SDS011;51448;51.660;5.824;2023-11-22T13:51:26;45.72;;;26.42;;
60502;SDS011;51448;51.660;5.824;2023-11-22T13:53:55;45.40;;;25.70;;
60502;SDS011;51448;51.660;5.824;2023-11-22T13:56:23;44.13;;;24.52;;
60502;SDS011;51448;51.660;5.824;2023-11-22T13:58:51;46.10;;;23.85;;
60502;SDS011;51448;51.660;5.824;2023-11-22T14:01:19;45.28;;;25.02;;
60502;SDS011;51448;51.660;5.824;2023-11-22T14:03:49;44.58;;;25.80;;
60502;SDS011;51448;51.660;5.824;2023-11-22T14:06:19;47.03;;;26.55;;
60502;SDS011;51448;51.660;5.824;2023-11-22T14:08:47;46.97;;;26.15;;
60502;SDS011;51448;51.660;5.824;2023-11-22T14:11:15;48.30;;;25.63;;
60502;SDS011;51448;51.660;5.824;2023-11-22T14:13:42;44.75;;;24.42;;
60502;SDS011;51448;51.660;5.824;2023-11-22T14:16:10;46.10;;;24.33;;
60502;SDS011;51448;51.660;5.824;2023-11-22T14:18:38;47.85;;;25.75;;
60502;SDS011;51448;51.660;5.824;2023-11-22T14:21:06;44.22;;;23.77;;
60502;SDS011;51448;51.660;5.824;2023-11-22T14:23:34;42.67;;;24.35;;
60502;SDS011;51448;51.660;5.824;2023-11-22T14:26:02;42.70;;;24.48;;
60502;SDS011;51448;51.660;5.824;2023-11-22T14:28:30;44.28;;;24.83;;
60502;SDS011;51448;51.660;5.824;2023-11-22T14:30:57;41.70;;;23.83;;
60502;SDS011;51448;51.660;5.824;2023-11-22T14:33:25;46.90;;;24.90;;
60502;SDS011;51448;51.660;5.824;2023-11-22T14:35:53;45.20;;;23.65;;
60502;SDS011;51448;51.660;5.824;2023-11-22T14:38:21;44.60;;;24.35;;
60502;SDS011;51448;51.660;5.824;2023-11-22T14:40:50;49.15;;;26.15;;